KQA67 HTDA-HKJK
Flight info
| Callsign | KQA67 |
|---|---|
| Flight time | 1h 7m |
| Altitude | 20000 |
| Route | EGVAT1D GEREN UL445 GABSO GABSO4C |
| Aircraft | E190/M-SDE3GILORVW/S |
Departure
| Time | 2026-04-26 11:07 |
|---|---|
| Airport | Julius Nyerere International Airport (HTDA) |
Arrival
| Time | 2026-04-26 12:14 |
|---|---|
| Airport | Jomo Kenyatta International Airport (HKJK) |
| Time | Latitude | Longitude | Altitude | Speed | Heading |
|---|---|---|---|---|---|
| 2026-04-26 10:52 | -6.86483 | 39.21152 | 183 ft | 0 kts | 315° |
| 2026-04-26 11:00 | -6.86486 | 39.21155 | 183 ft | 2 kts | 315° |
| 2026-04-26 11:00 | -6.86497 | 39.21166 | 182 ft | 2 kts | 315° |
| 2026-04-26 11:01 | -6.86508 | 39.21176 | 182 ft | 2 kts | 315° |
| 2026-04-26 11:01 | -6.86519 | 39.21187 | 181 ft | 2 kts | 315° |
| 2026-04-26 11:01 | -6.86530 | 39.21197 | 181 ft | 2 kts | 342° |
| 2026-04-26 11:01 | -6.86544 | 39.21196 | 181 ft | 2 kts | 31° |
| 2026-04-26 11:02 | -6.86550 | 39.21191 | 181 ft | 0 kts | 46° |
| 2026-04-26 11:03 | -6.86538 | 39.21204 | 181 ft | 5 kts | 46° |
| 2026-04-26 11:04 | -6.86491 | 39.21251 | 181 ft | 13 kts | 45° |
| 2026-04-26 11:04 | -6.86420 | 39.21333 | 182 ft | 15 kts | 75° |
| 2026-04-26 11:04 | -6.86409 | 39.21438 | 180 ft | 16 kts | 45° |
| 2026-04-26 11:04 | -6.86332 | 39.21531 | 178 ft | 18 kts | 69° |
| 2026-04-26 11:05 | -6.86349 | 39.21655 | 174 ft | 20 kts | 146° |
| 2026-04-26 11:05 | -6.86447 | 39.21630 | 173 ft | 7 kts | 224° |
| 2026-04-26 11:05 | -6.86449 | 39.21628 | 173 ft | 0 kts | 225° |
| 2026-04-26 11:05 | -6.86465 | 39.21611 | 174 ft | 24 kts | 225° |
| 2026-04-26 11:06 | -6.86534 | 39.21540 | 176 ft | 54 kts | 224° |
| 2026-04-26 11:06 | -6.86789 | 39.21288 | 181 ft | 100 kts | 225° |
| 2026-04-26 11:06 | -6.87493 | 39.20588 | 199 ft | 159 kts | 223° |
| 2026-04-26 11:06 | -6.88182 | 39.19909 | 584 ft | 165 kts | 222° |
| 2026-04-26 11:07 | -6.88925 | 39.19131 | 1053 ft | 155 kts | 235° |
| 2026-04-26 11:07 | -6.89231 | 39.18094 | 1271 ft | 172 kts | 272° |
| 2026-04-26 11:07 | -6.88704 | 39.16956 | 1835 ft | 193 kts | 309° |
| 2026-04-26 11:07 | -6.87877 | 39.15895 | 2332 ft | 215 kts | 303° |
| 2026-04-26 11:08 | -6.87056 | 39.14573 | 2979 ft | 232 kts | 298° |
| 2026-04-26 11:08 | -6.86286 | 39.13101 | 3662 ft | 249 kts | 295° |
| 2026-04-26 11:08 | -6.85529 | 39.11489 | 4502 ft | 261 kts | 293° |
| 2026-04-26 11:08 | -6.84797 | 39.09840 | 5562 ft | 261 kts | 292° |
| 2026-04-26 11:09 | -6.84080 | 39.08170 | 6604 ft | 261 kts | 292° |
| 2026-04-26 11:09 | -6.83377 | 39.06509 | 7561 ft | 262 kts | 293° |
| 2026-04-26 11:09 | -6.82655 | 39.04790 | 7867 ft | 269 kts | 293° |
| 2026-04-26 11:09 | -6.81928 | 39.03053 | 7911 ft | 268 kts | 293° |
| 2026-04-26 11:10 | -6.81203 | 39.01317 | 7922 ft | 267 kts | 293° |
| 2026-04-26 11:10 | -6.80351 | 38.99690 | 7920 ft | 264 kts | 315° |
| 2026-04-26 11:10 | -6.78786 | 38.98766 | 7964 ft | 260 kts | 352° |
| 2026-04-26 11:10 | -6.76971 | 38.98967 | 8356 ft | 272 kts | 24° |
| 2026-04-26 11:11 | -6.75266 | 38.99696 | 8871 ft | 258 kts | 27° |
| 2026-04-26 11:11 | -6.73636 | 39.00462 | 8912 ft | 252 kts | 28° |
| 2026-04-26 11:11 | -6.72053 | 39.01236 | 8933 ft | 253 kts | 29° |
| 2026-04-26 11:11 | -6.70466 | 39.02027 | 8937 ft | 254 kts | 29° |
| 2026-04-26 11:12 | -6.68889 | 39.02821 | 8932 ft | 254 kts | 29° |
| 2026-04-26 11:12 | -6.67284 | 39.03633 | 8927 ft | 254 kts | 29° |
| 2026-04-26 11:12 | -6.65711 | 39.04431 | 8927 ft | 254 kts | 29° |
| 2026-04-26 11:12 | -6.64129 | 39.05233 | 8928 ft | 254 kts | 30° |
| 2026-04-26 11:13 | -6.62535 | 39.06043 | 8922 ft | 254 kts | 29° |
| 2026-04-26 11:13 | -6.60811 | 39.06426 | 8935 ft | 261 kts | 356° |
| 2026-04-26 11:13 | -6.58928 | 39.06045 | 9357 ft | 282 kts | 349° |
| 2026-04-26 11:13 | -6.57022 | 39.05594 | 10286 ft | 281 kts | 349° |
| 2026-04-26 11:14 | -6.55157 | 39.05146 | 11309 ft | 275 kts | 348° |
| 2026-04-26 11:14 | -6.53336 | 39.04705 | 12220 ft | 273 kts | 348° |
| 2026-04-26 11:14 | -6.51481 | 39.04254 | 13038 ft | 276 kts | 347° |
| 2026-04-26 11:14 | -6.50241 | 39.03953 | 13528 ft | 279 kts | 347° |
| 2026-04-26 11:15 | -6.47697 | 39.03334 | 14524 ft | 285 kts | 346° |
| 2026-04-26 11:15 | -6.45742 | 39.02858 | 15286 ft | 289 kts | 346° |
| 2026-04-26 11:15 | -6.43803 | 39.02386 | 16023 ft | 292 kts | 345° |
| 2026-04-26 11:15 | -6.41805 | 39.01900 | 16766 ft | 294 kts | 345° |
| 2026-04-26 11:16 | -6.39808 | 39.01413 | 17452 ft | 297 kts | 345° |
| 2026-04-26 11:16 | -6.37805 | 39.00925 | 18110 ft | 300 kts | 345° |
| 2026-04-26 11:16 | -6.35765 | 39.00429 | 18781 ft | 302 kts | 346° |
| 2026-04-26 11:16 | -6.33709 | 38.99928 | 19293 ft | 310 kts | 346° |
| 2026-04-26 11:17 | -6.31516 | 38.99395 | 19409 ft | 333 kts | 346° |
| 2026-04-26 11:17 | -6.29209 | 38.98834 | 19658 ft | 349 kts | 346° |
| 2026-04-26 11:17 | -6.26848 | 38.98259 | 19873 ft | 345 kts | 346° |
| 2026-04-26 11:17 | -6.24505 | 38.97689 | 19897 ft | 344 kts | 346° |
| 2026-04-26 11:18 | -6.22143 | 38.97115 | 19997 ft | 356 kts | 346° |
| 2026-04-26 11:18 | -6.19713 | 38.96524 | 20564 ft | 360 kts | 347° |
| 2026-04-26 11:18 | -6.17293 | 38.95935 | 21336 ft | 356 kts | 347° |
| 2026-04-26 11:18 | -6.14923 | 38.95359 | 22056 ft | 353 kts | 347° |
| 2026-04-26 11:19 | -6.12519 | 38.94775 | 22698 ft | 353 kts | 348° |
| 2026-04-26 11:19 | -6.10149 | 38.94125 | 23214 ft | 357 kts | 339° |
| 2026-04-26 11:19 | -6.07863 | 38.93097 | 23667 ft | 363 kts | 336° |
| 2026-04-26 11:19 | -6.05531 | 38.92017 | 24143 ft | 367 kts | 336° |
| 2026-04-26 11:20 | -6.03209 | 38.90939 | 24633 ft | 370 kts | 336° |
| 2026-04-26 11:20 | -6.01638 | 38.90210 | 24974 ft | 372 kts | 336° |
| 2026-04-26 11:20 | -5.98476 | 38.88742 | 25632 ft | 375 kts | 336° |
| 2026-04-26 11:20 | -5.96119 | 38.87648 | 25795 ft | 368 kts | 336° |
| 2026-04-26 11:21 | -5.93844 | 38.86592 | 25435 ft | 359 kts | 336° |
| 2026-04-26 11:21 | -5.91561 | 38.85533 | 24740 ft | 368 kts | 336° |
| 2026-04-26 11:21 | -5.89158 | 38.84419 | 24393 ft | 375 kts | 336° |
| 2026-04-26 11:21 | -5.86824 | 38.83335 | 24630 ft | 363 kts | 336° |
| 2026-04-26 11:22 | -5.84522 | 38.82267 | 24848 ft | 368 kts | 336° |
| 2026-04-26 11:22 | -5.82176 | 38.81179 | 25112 ft | 372 kts | 336° |
| 2026-04-26 11:22 | -5.79824 | 38.80088 | 25376 ft | 374 kts | 336° |
| 2026-04-26 11:22 | -5.77439 | 38.78982 | 25639 ft | 376 kts | 336° |
| 2026-04-26 11:23 | -5.75050 | 38.77874 | 25871 ft | 378 kts | 336° |
| 2026-04-26 11:23 | -5.72649 | 38.76761 | 25901 ft | 378 kts | 336° |
| 2026-04-26 11:23 | -5.70261 | 38.75654 | 25908 ft | 378 kts | 336° |
| 2026-04-26 11:23 | -5.67839 | 38.74531 | 25907 ft | 378 kts | 336° |
| 2026-04-26 11:24 | -5.65473 | 38.73434 | 25911 ft | 378 kts | 336° |
| 2026-04-26 11:24 | -5.63079 | 38.72324 | 25911 ft | 377 kts | 336° |
| 2026-04-26 11:24 | -5.60666 | 38.71206 | 25916 ft | 376 kts | 336° |
| 2026-04-26 11:24 | -5.58307 | 38.70113 | 25915 ft | 377 kts | 336° |
| 2026-04-26 11:25 | -5.55907 | 38.69001 | 25921 ft | 376 kts | 336° |
| 2026-04-26 11:25 | -5.53508 | 38.67889 | 25920 ft | 376 kts | 336° |
| 2026-04-26 11:25 | -5.51109 | 38.66777 | 25919 ft | 377 kts | 336° |
| 2026-04-26 11:25 | -5.48715 | 38.65669 | 25922 ft | 377 kts | 336° |
| 2026-04-26 11:26 | -5.46346 | 38.64571 | 25930 ft | 377 kts | 336° |
| 2026-04-26 11:26 | -5.43952 | 38.63462 | 25930 ft | 377 kts | 336° |
| 2026-04-26 11:26 | -5.41561 | 38.62354 | 25931 ft | 377 kts | 336° |
| 2026-04-26 11:26 | -5.39158 | 38.61242 | 25933 ft | 377 kts | 336° |
| 2026-04-26 11:27 | -5.36756 | 38.60130 | 25931 ft | 378 kts | 336° |
| 2026-04-26 11:27 | -5.34363 | 38.59021 | 25932 ft | 378 kts | 336° |
| 2026-04-26 11:27 | -5.31986 | 38.57921 | 25934 ft | 378 kts | 336° |
| 2026-04-26 11:27 | -5.29598 | 38.56815 | 25938 ft | 376 kts | 336° |
| 2026-04-26 11:28 | -5.27187 | 38.55699 | 25937 ft | 376 kts | 336° |
| 2026-04-26 11:28 | -5.24795 | 38.54592 | 25939 ft | 376 kts | 336° |
| 2026-04-26 11:28 | -5.22408 | 38.53487 | 25939 ft | 376 kts | 336° |
| 2026-04-26 11:28 | -5.20031 | 38.52387 | 25946 ft | 377 kts | 336° |
| 2026-04-26 11:29 | -5.17616 | 38.51270 | 25948 ft | 376 kts | 336° |
| 2026-04-26 11:29 | -5.15234 | 38.50168 | 25951 ft | 377 kts | 336° |
| 2026-04-26 11:29 | -5.12854 | 38.49066 | 25956 ft | 377 kts | 336° |
| 2026-04-26 11:29 | -5.10448 | 38.47953 | 25956 ft | 377 kts | 336° |
| 2026-04-26 11:30 | -5.08086 | 38.46860 | 25967 ft | 377 kts | 336° |
| 2026-04-26 11:30 | -5.06474 | 38.46120 | 25975 ft | 376 kts | 338° |
| 2026-04-26 11:30 | -5.03237 | 38.44815 | 25976 ft | 376 kts | 340° |
| 2026-04-26 11:30 | -5.00795 | 38.43837 | 25979 ft | 376 kts | 339° |
| 2026-04-26 11:31 | -4.98349 | 38.42857 | 25988 ft | 375 kts | 340° |
| 2026-04-26 11:31 | -4.95914 | 38.41881 | 25999 ft | 376 kts | 339° |
| 2026-04-26 11:31 | -4.93472 | 38.40902 | 26014 ft | 376 kts | 339° |
| 2026-04-26 11:31 | -4.91033 | 38.39925 | 26023 ft | 376 kts | 339° |
| 2026-04-26 11:32 | -4.88574 | 38.38939 | 26041 ft | 376 kts | 339° |
| 2026-04-26 11:32 | -4.86156 | 38.37971 | 26053 ft | 376 kts | 339° |
| 2026-04-26 11:32 | -4.83713 | 38.36992 | 26064 ft | 376 kts | 339° |
| 2026-04-26 11:32 | -4.81246 | 38.36004 | 26083 ft | 376 kts | 339° |
| 2026-04-26 11:33 | -4.78782 | 38.35016 | 26100 ft | 376 kts | 339° |
| 2026-04-26 11:33 | -4.76350 | 38.34042 | 26119 ft | 375 kts | 340° |
| 2026-04-26 11:33 | -4.73901 | 38.33061 | 26132 ft | 375 kts | 339° |
| 2026-04-26 11:33 | -4.71479 | 38.32091 | 26137 ft | 375 kts | 340° |
| 2026-04-26 11:34 | -4.69042 | 38.31115 | 26137 ft | 376 kts | 340° |
| 2026-04-26 11:34 | -4.66572 | 38.30126 | 26140 ft | 375 kts | 339° |
| 2026-04-26 11:34 | -4.64157 | 38.29159 | 26138 ft | 376 kts | 340° |
| 2026-04-26 11:34 | -4.61703 | 38.28177 | 26142 ft | 375 kts | 340° |
| 2026-04-26 11:35 | -4.59272 | 38.27203 | 26150 ft | 376 kts | 340° |
| 2026-04-26 11:35 | -4.56848 | 38.26233 | 26145 ft | 375 kts | 339° |
| 2026-04-26 11:35 | -4.54389 | 38.25248 | 26151 ft | 375 kts | 340° |
| 2026-04-26 11:35 | -4.52781 | 38.24605 | 26155 ft | 375 kts | 340° |
| 2026-04-26 11:36 | -4.49537 | 38.23307 | 26148 ft | 376 kts | 339° |
| 2026-04-26 11:36 | -4.47110 | 38.22335 | 26136 ft | 375 kts | 340° |
| 2026-04-26 11:36 | -4.44684 | 38.21365 | 26121 ft | 375 kts | 339° |
| 2026-04-26 11:36 | -4.42234 | 38.20384 | 26103 ft | 376 kts | 339° |
| 2026-04-26 11:37 | -4.39813 | 38.19415 | 26086 ft | 375 kts | 340° |
| 2026-04-26 11:37 | -4.37378 | 38.18441 | 26079 ft | 375 kts | 340° |
| 2026-04-26 11:37 | -4.34957 | 38.17472 | 26067 ft | 375 kts | 340° |
| 2026-04-26 11:37 | -4.32523 | 38.16499 | 26059 ft | 375 kts | 340° |
| 2026-04-26 11:38 | -4.30057 | 38.15512 | 26048 ft | 375 kts | 339° |
| 2026-04-26 11:38 | -4.27637 | 38.14544 | 26045 ft | 375 kts | 340° |
| 2026-04-26 11:38 | -4.25219 | 38.13577 | 26044 ft | 375 kts | 340° |
| 2026-04-26 11:38 | -4.22755 | 38.12591 | 26044 ft | 374 kts | 340° |
| 2026-04-26 11:39 | -4.20328 | 38.11621 | 26048 ft | 374 kts | 340° |
| 2026-04-26 11:39 | -4.17917 | 38.10657 | 26051 ft | 375 kts | 340° |
| 2026-04-26 11:39 | -4.15482 | 38.09683 | 26052 ft | 374 kts | 340° |
| 2026-04-26 11:39 | -4.13061 | 38.08715 | 26049 ft | 374 kts | 340° |
| 2026-04-26 11:40 | -4.10610 | 38.07735 | 26049 ft | 375 kts | 340° |
| 2026-04-26 11:40 | -4.08175 | 38.06762 | 26048 ft | 375 kts | 340° |
| 2026-04-26 11:40 | -4.05723 | 38.05782 | 26050 ft | 375 kts | 340° |
| 2026-04-26 11:40 | -4.03320 | 38.04821 | 26045 ft | 375 kts | 340° |
| 2026-04-26 11:41 | -4.00854 | 38.03836 | 26041 ft | 375 kts | 339° |
| 2026-04-26 11:42 | -3.83853 | 37.97042 | 26054 ft | 374 kts | 340° |
| 2026-04-26 11:43 | -3.81434 | 37.96118 | 26051 ft | 373 kts | 345° |
| 2026-04-26 11:43 | -3.78896 | 37.95429 | 26059 ft | 373 kts | 347° |
| 2026-04-26 11:43 | -3.76382 | 37.94768 | 26057 ft | 373 kts | 347° |
| 2026-04-26 11:43 | -3.73861 | 37.94106 | 26058 ft | 372 kts | 347° |
| 2026-04-26 11:44 | -3.71348 | 37.93446 | 26059 ft | 373 kts | 347° |
| 2026-04-26 11:44 | -3.68837 | 37.92786 | 26056 ft | 373 kts | 347° |
| 2026-04-26 11:44 | -3.66301 | 37.92119 | 26058 ft | 372 kts | 347° |
| 2026-04-26 11:44 | -3.63792 | 37.91460 | 26060 ft | 372 kts | 347° |
| 2026-04-26 11:45 | -3.61268 | 37.90797 | 26060 ft | 372 kts | 347° |
| 2026-04-26 11:45 | -3.58749 | 37.90108 | 26058 ft | 373 kts | 341° |
| 2026-04-26 11:45 | -3.56354 | 37.89079 | 26072 ft | 373 kts | 337° |
| 2026-04-26 11:45 | -3.54001 | 37.88010 | 26061 ft | 374 kts | 337° |
| 2026-04-26 11:46 | -3.51618 | 37.86927 | 26059 ft | 372 kts | 337° |
| 2026-04-26 11:46 | -3.49246 | 37.85848 | 26058 ft | 373 kts | 337° |
| 2026-04-26 11:46 | -3.46889 | 37.84776 | 26061 ft | 372 kts | 338° |
| 2026-04-26 11:46 | -3.44514 | 37.83696 | 26061 ft | 372 kts | 337° |
| 2026-04-26 11:47 | -3.42151 | 37.82621 | 26061 ft | 372 kts | 338° |
| 2026-04-26 11:47 | -3.39765 | 37.81536 | 26062 ft | 373 kts | 337° |
| 2026-04-26 11:47 | -3.37377 | 37.80450 | 26066 ft | 372 kts | 338° |
| 2026-04-26 11:47 | -3.35008 | 37.79374 | 26068 ft | 373 kts | 337° |
| 2026-04-26 11:48 | -3.32634 | 37.78294 | 26067 ft | 373 kts | 338° |
| 2026-04-26 11:48 | -3.30253 | 37.77211 | 26069 ft | 372 kts | 337° |
| 2026-04-26 11:48 | -3.27874 | 37.76129 | 26066 ft | 373 kts | 338° |
| 2026-04-26 11:48 | -3.25529 | 37.75063 | 26063 ft | 368 kts | 338° |
| 2026-04-26 11:49 | -3.23230 | 37.74017 | 26057 ft | 357 kts | 338° |
| 2026-04-26 11:49 | -3.20941 | 37.72978 | 26072 ft | 355 kts | 338° |
| 2026-04-26 11:49 | -3.18690 | 37.71954 | 26082 ft | 355 kts | 338° |
| 2026-04-26 11:49 | -3.16413 | 37.70920 | 26087 ft | 357 kts | 338° |
| 2026-04-26 11:50 | -3.14174 | 37.69902 | 26091 ft | 357 kts | 338° |
| 2026-04-26 11:50 | -3.11889 | 37.68863 | 26092 ft | 358 kts | 338° |
| 2026-04-26 11:50 | -3.09598 | 37.67823 | 26103 ft | 358 kts | 338° |
| 2026-04-26 11:50 | -3.07311 | 37.66783 | 26114 ft | 358 kts | 338° |
| 2026-04-26 11:51 | -3.05037 | 37.65750 | 26120 ft | 358 kts | 338° |
| 2026-04-26 11:51 | -3.02769 | 37.64719 | 26131 ft | 357 kts | 338° |
| 2026-04-26 11:51 | -3.00515 | 37.63695 | 26133 ft | 357 kts | 338° |
| 2026-04-26 11:51 | -2.98227 | 37.62655 | 26142 ft | 356 kts | 338° |
| 2026-04-26 11:52 | -2.95980 | 37.61634 | 26149 ft | 356 kts | 338° |
| 2026-04-26 11:52 | -2.94448 | 37.60938 | 26151 ft | 356 kts | 338° |
| 2026-04-26 11:52 | -2.91443 | 37.59573 | 26145 ft | 357 kts | 338° |
| 2026-04-26 11:52 | -2.89173 | 37.58542 | 26148 ft | 357 kts | 338° |
| 2026-04-26 11:53 | -2.86888 | 37.57504 | 26153 ft | 356 kts | 338° |
| 2026-04-26 11:53 | -2.84639 | 37.56437 | 26152 ft | 358 kts | 334° |
| 2026-04-26 11:53 | -2.82464 | 37.55221 | 26152 ft | 358 kts | 333° |
| 2026-04-26 11:54 | -2.78062 | 37.52772 | 26141 ft | 358 kts | 333° |
| 2026-04-26 11:54 | -2.75824 | 37.51528 | 26130 ft | 358 kts | 333° |
| 2026-04-26 11:54 | -2.73610 | 37.50298 | 26054 ft | 348 kts | 333° |
| 2026-04-26 11:54 | -2.71514 | 37.49135 | 25583 ft | 344 kts | 334° |
| 2026-04-26 11:55 | -2.69408 | 37.47967 | 24828 ft | 348 kts | 333° |
| 2026-04-26 11:55 | -2.67263 | 37.46777 | 23967 ft | 354 kts | 333° |
| 2026-04-26 11:55 | -2.65127 | 37.45591 | 23134 ft | 358 kts | 333° |
| 2026-04-26 11:55 | -2.62940 | 37.44378 | 22335 ft | 360 kts | 333° |
| 2026-04-26 11:56 | -2.60734 | 37.43153 | 21577 ft | 361 kts | 333° |
| 2026-04-26 11:56 | -2.58541 | 37.41936 | 21181 ft | 364 kts | 333° |
| 2026-04-26 11:56 | -2.56310 | 37.40698 | 21135 ft | 366 kts | 333° |
| 2026-04-26 11:56 | -2.54088 | 37.39464 | 21116 ft | 366 kts | 332° |
| 2026-04-26 11:57 | -2.51840 | 37.38217 | 21106 ft | 365 kts | 332° |
| 2026-04-26 11:57 | -2.49601 | 37.36974 | 21110 ft | 365 kts | 332° |
| 2026-04-26 11:57 | -2.47371 | 37.35737 | 21116 ft | 366 kts | 333° |
| 2026-04-26 11:57 | -2.45134 | 37.34495 | 21118 ft | 366 kts | 333° |
| 2026-04-26 11:58 | -2.42906 | 37.33259 | 21119 ft | 365 kts | 333° |
| 2026-04-26 11:58 | -2.40658 | 37.32013 | 21118 ft | 364 kts | 333° |
| 2026-04-26 11:58 | -2.38419 | 37.30770 | 21120 ft | 373 kts | 333° |
| 2026-04-26 11:58 | -2.36127 | 37.29499 | 21109 ft | 370 kts | 333° |
| 2026-04-26 11:59 | -2.33894 | 37.28260 | 21117 ft | 369 kts | 333° |
| 2026-04-26 11:59 | -2.31634 | 37.27007 | 21115 ft | 370 kts | 333° |
| 2026-04-26 11:59 | -2.29367 | 37.25749 | 21112 ft | 370 kts | 333° |
| 2026-04-26 11:59 | -2.27076 | 37.24478 | 21112 ft | 369 kts | 333° |
| 2026-04-26 12:00 | -2.24829 | 37.23231 | 21120 ft | 369 kts | 333° |
| 2026-04-26 12:00 | -2.22583 | 37.21985 | 21111 ft | 359 kts | 333° |
| 2026-04-26 12:00 | -2.20447 | 37.20800 | 21056 ft | 338 kts | 333° |
| 2026-04-26 12:00 | -2.18414 | 37.19672 | 20766 ft | 326 kts | 333° |
| 2026-04-26 12:01 | -2.16445 | 37.18581 | 20273 ft | 323 kts | 333° |
| 2026-04-26 12:01 | -2.14719 | 37.17625 | 20198 ft | 333 kts | 333° |
| 2026-04-26 12:01 | -2.12662 | 37.16484 | 20168 ft | 334 kts | 333° |
| 2026-04-26 12:01 | -2.10663 | 37.15374 | 20123 ft | 318 kts | 333° |
| 2026-04-26 12:02 | -2.08785 | 37.14333 | 20002 ft | 302 kts | 333° |
| 2026-04-26 12:02 | -2.07563 | 37.13655 | 19887 ft | 294 kts | 333° |
| 2026-04-26 12:02 | -2.05212 | 37.12351 | 19591 ft | 281 kts | 333° |
| 2026-04-26 12:02 | -2.03523 | 37.11415 | 19326 ft | 274 kts | 333° |
| 2026-04-26 12:03 | -2.01851 | 37.10488 | 19029 ft | 268 kts | 333° |
| 2026-04-26 12:03 | -2.00224 | 37.09586 | 18714 ft | 264 kts | 333° |
| 2026-04-26 12:03 | -1.98641 | 37.08709 | 18393 ft | 261 kts | 333° |
| 2026-04-26 12:03 | -1.97034 | 37.07818 | 18056 ft | 259 kts | 333° |
| 2026-04-26 12:04 | -1.95473 | 37.06952 | 17718 ft | 257 kts | 333° |
| 2026-04-26 12:04 | -1.93832 | 37.06045 | 17433 ft | 287 kts | 333° |
| 2026-04-26 12:04 | -1.91962 | 37.05009 | 17165 ft | 318 kts | 333° |
| 2026-04-26 12:04 | -1.89980 | 37.03909 | 16809 ft | 325 kts | 333° |
| 2026-04-26 12:05 | -1.88006 | 37.02814 | 16428 ft | 323 kts | 333° |
| 2026-04-26 12:05 | -1.86027 | 37.01716 | 16039 ft | 319 kts | 333° |
| 2026-04-26 12:05 | -1.84097 | 37.00646 | 15660 ft | 315 kts | 333° |
| 2026-04-26 12:05 | -1.82163 | 36.99574 | 15275 ft | 313 kts | 333° |
| 2026-04-26 12:06 | -1.80265 | 36.98522 | 14898 ft | 311 kts | 333° |
| 2026-04-26 12:06 | -1.78424 | 36.97502 | 14539 ft | 309 kts | 333° |
| 2026-04-26 12:06 | -1.76466 | 36.96417 | 14156 ft | 307 kts | 333° |
| 2026-04-26 12:06 | -1.74597 | 36.95381 | 13790 ft | 305 kts | 333° |
| 2026-04-26 12:07 | -1.72740 | 36.94351 | 13421 ft | 303 kts | 333° |
| 2026-04-26 12:07 | -1.70887 | 36.93325 | 13053 ft | 301 kts | 333° |
| 2026-04-26 12:07 | -1.69051 | 36.92307 | 12688 ft | 301 kts | 333° |
| 2026-04-26 12:07 | -1.67203 | 36.91283 | 12318 ft | 300 kts | 332° |
| 2026-04-26 12:08 | -1.65356 | 36.90259 | 11951 ft | 299 kts | 332° |
| 2026-04-26 12:08 | -1.63556 | 36.89262 | 11591 ft | 298 kts | 332° |
| 2026-04-26 12:08 | -1.61733 | 36.88251 | 11224 ft | 297 kts | 332° |
| 2026-04-26 12:08 | -1.59917 | 36.87245 | 10864 ft | 296 kts | 332° |
| 2026-04-26 12:09 | -1.58098 | 36.86237 | 10500 ft | 294 kts | 332° |
| 2026-04-26 12:09 | -1.56323 | 36.85253 | 10139 ft | 293 kts | 332° |
| 2026-04-26 12:09 | -1.54519 | 36.84253 | 9767 ft | 293 kts | 332° |
| 2026-04-26 12:09 | -1.52748 | 36.83272 | 9397 ft | 291 kts | 332° |
| 2026-04-26 12:10 | -1.50910 | 36.82399 | 9223 ft | 285 kts | 343° |
| 2026-04-26 12:10 | -1.49169 | 36.81473 | 9211 ft | 288 kts | 317° |
| 2026-04-26 12:10 | -1.47688 | 36.80085 | 9222 ft | 290 kts | 320° |
| 2026-04-26 12:10 | -1.46104 | 36.78831 | 9205 ft | 290 kts | 331° |
| 2026-04-26 12:11 | -1.44146 | 36.78330 | 9229 ft | 287 kts | 5° |
| 2026-04-26 12:11 | -1.42264 | 36.78916 | 9028 ft | 286 kts | 35° |
| 2026-04-26 12:11 | -1.40933 | 36.80357 | 8693 ft | 281 kts | 59° |
| 2026-04-26 12:11 | -1.39879 | 36.81955 | 8450 ft | 267 kts | 56° |
| 2026-04-26 12:12 | -1.38813 | 36.83434 | 8007 ft | 255 kts | 54° |
| 2026-04-26 12:12 | -1.37804 | 36.84808 | 7418 ft | 238 kts | 54° |
| 2026-04-26 12:12 | -1.36835 | 36.86067 | 7042 ft | 209 kts | 52° |
| 2026-04-26 12:12 | -1.36242 | 36.86773 | 6852 ft | 193 kts | 51° |
| 2026-04-26 12:13 | -1.35184 | 36.88132 | 6273 ft | 177 kts | 59° |
| 2026-04-26 12:13 | -1.34546 | 36.89134 | 5981 ft | 161 kts | 57° |
| 2026-04-26 12:13 | -1.33918 | 36.90001 | 5760 ft | 148 kts | 56° |
| 2026-04-26 12:13 | -1.33332 | 36.90823 | 5548 ft | 142 kts | 57° |
| 2026-04-26 12:14 | -1.32754 | 36.91633 | 5374 ft | 139 kts | 56° |
| 2026-04-26 12:14 | -1.32205 | 36.92392 | 5336 ft | 129 kts | 56° |
| 2026-04-26 12:14 | -1.31736 | 36.93040 | 5334 ft | 87 kts | 55° |
| 2026-04-26 12:14 | -1.31550 | 36.93335 | 5334 ft | 14 kts | 110° |
| 2026-04-26 12:15 | -1.31613 | 36.93365 | 5334 ft | 9 kts | 148° |
| 2026-04-26 12:15 | -1.31668 | 36.93404 | 5334 ft | 9 kts | 144° |
| 2026-04-26 12:15 | -1.31725 | 36.93445 | 5333 ft | 10 kts | 144° |
| 2026-04-26 12:15 | -1.31785 | 36.93481 | 5333 ft | 9 kts | 176° |
| 2026-04-26 12:16 | -1.31843 | 36.93453 | 5334 ft | 10 kts | 228° |
| 2026-04-26 12:16 | -1.31889 | 36.93389 | 5334 ft | 12 kts | 234° |
| 2026-04-26 12:16 | -1.31955 | 36.93300 | 5334 ft | 18 kts | 234° |
| 2026-04-26 12:16 | -1.32034 | 36.93191 | 5334 ft | 20 kts | 234° |
| 2026-04-26 12:17 | -1.32118 | 36.93076 | 5334 ft | 20 kts | 234° |
| 2026-04-26 12:17 | -1.32201 | 36.92961 | 5334 ft | 20 kts | 234° |
| 2026-04-26 12:17 | -1.32285 | 36.92847 | 5334 ft | 20 kts | 233° |
| 2026-04-26 12:17 | -1.32371 | 36.92730 | 5334 ft | 22 kts | 234° |
| 2026-04-26 12:18 | -1.32469 | 36.92593 | 5334 ft | 24 kts | 233° |
| 2026-04-26 12:18 | -1.32570 | 36.92452 | 5335 ft | 24 kts | 234° |
| 2026-04-26 12:18 | -1.32664 | 36.92353 | 5335 ft | 14 kts | 191° |
| 2026-04-26 12:18 | -1.32733 | 36.92384 | 5335 ft | 8 kts | 153° |
| 2026-04-26 12:19 | -1.32791 | 36.92374 | 5335 ft | 10 kts | 227° |
| 2026-04-26 12:19 | -1.32844 | 36.92304 | 5335 ft | 13 kts | 227° |
| 2026-04-26 12:19 | -1.32919 | 36.92290 | 5335 ft | 11 kts | 123° |
| 2026-04-26 12:19 | -1.32941 | 36.92326 | 5335 ft | 3 kts | 121° |
| 2026-04-26 12:20 | -1.32946 | 36.92335 | 5335 ft | 0 kts | 122° |